createdAt,value
2023-05-20T00:00:14.500Z,5.30
2023-05-20T00:05:25.930Z,4.50
2023-05-20T00:10:35.062Z,4.47
2023-05-20T00:15:39.806Z,4.60
2023-05-20T00:20:57.845Z,4.75
2023-05-20T00:26:02.966Z,4.75
2023-05-20T00:31:06.968Z,4.13
2023-05-20T00:36:11.671Z,4.75
2023-05-20T00:41:18.866Z,4.22
2023-05-20T00:46:25.786Z,4.55
2023-05-20T00:51:29.574Z,4.13
2023-05-20T00:56:37.342Z,4.35
2023-05-20T01:01:41.748Z,3.85
2023-05-20T01:06:46.566Z,4.53
2023-05-20T01:11:57.339Z,3.95
2023-05-20T01:17:11.212Z,4.50
2023-05-20T01:22:17.201Z,4.40
2023-05-20T01:27:24.571Z,4.78
2023-05-20T01:32:38.716Z,4.35
2023-05-20T01:37:44.309Z,4.32
2023-05-20T01:42:53.664Z,4.68
2023-05-20T01:47:58.325Z,4.88
2023-05-20T01:53:02.361Z,4.68
2023-05-20T01:58:13.219Z,3.80
2023-05-20T02:03:16.603Z,5.10
2023-05-20T02:08:21.244Z,5.60
2023-05-20T02:13:27.829Z,3.95
2023-05-20T02:18:35.513Z,4.55
2023-05-20T02:23:40.056Z,4.20
2023-05-20T02:28:50.807Z,4.35
2023-05-20T02:33:57.833Z,3.97
2023-05-20T02:39:02.672Z,4.18
2023-05-20T02:44:10.802Z,4.15
2023-05-20T02:49:14.465Z,5.20
2023-05-20T02:54:18.997Z,4.57
2023-05-20T02:59:25.883Z,4.03
2023-05-20T03:04:38.731Z,4.45
2023-05-20T03:09:42.840Z,4.88
2023-05-20T03:14:50.652Z,5.93
2023-05-20T03:19:55.393Z,5.45
2023-05-20T03:25:00.663Z,4.43
2023-05-20T03:30:06.320Z,4.72
2023-05-20T03:35:11.606Z,3.83
2023-05-20T03:40:15.600Z,3.83
2023-05-20T03:45:23.060Z,4.15
2023-05-20T03:50:27.571Z,3.42
2023-05-20T03:55:32.679Z,3.80
2023-05-20T04:00:40.008Z,3.92
2023-05-20T04:06:07.466Z,3.58
2023-05-20T04:11:28.048Z,3.10
2023-05-20T04:22:11.174Z,3.22
2023-05-20T04:33:07.717Z,3.78
2023-05-20T04:38:11.660Z,3.90
2023-05-20T04:43:34.041Z,4.13
2023-05-20T04:48:39.215Z,3.92
2023-05-20T04:54:03.816Z,4.43
2023-05-20T04:59:09.774Z,4.47
2023-05-20T05:04:17.262Z,4.18
2023-05-20T05:09:24.007Z,4.40
2023-05-20T05:15:18.438Z,4.20
2023-05-20T05:20:33.049Z,4.05
2023-05-20T05:25:40.380Z,4.18
2023-05-20T05:30:43.681Z,4.38
2023-05-20T05:35:54.269Z,3.80
2023-05-20T05:41:03.086Z,4.13
2023-05-20T05:46:06.850Z,4.28
2023-05-20T05:51:13.263Z,3.90
2023-05-20T05:56:22.989Z,4.15
2023-05-20T06:01:26.838Z,3.47
2023-05-20T06:06:32.638Z,4.05
2023-05-20T06:11:36.166Z,6.90
2023-05-20T06:16:40.922Z,3.83
2023-05-20T06:21:48.167Z,3.13
2023-05-20T06:26:59.820Z,3.10
2023-05-20T06:32:03.350Z,2.90
2023-05-20T06:37:09.121Z,2.20
2023-05-20T06:42:13.744Z,2.58
2023-05-20T06:47:19.470Z,2.65
2023-05-20T06:52:24.393Z,2.67
2023-05-20T06:57:31.890Z,2.95
2023-05-20T07:02:36.548Z,2.85
2023-05-20T07:07:42.569Z,2.70
2023-05-20T07:12:48.150Z,2.70
2023-05-20T07:17:54.914Z,2.97
2023-05-20T07:23:01.526Z,2.83
2023-05-20T07:28:12.904Z,3.05
2023-05-20T07:33:17.721Z,2.97
2023-05-20T07:38:23.159Z,2.97
2023-05-20T07:43:30.793Z,3.58
2023-05-20T07:48:39.844Z,3.97
2023-05-20T07:53:44.962Z,4.22
2023-05-20T07:59:00.449Z,3.90
2023-05-20T08:04:04.444Z,4.57
2023-05-20T08:09:11.891Z,4.15
2023-05-20T08:14:15.704Z,4.32
2023-05-20T08:19:21.754Z,3.70
2023-05-20T08:24:32.587Z,3.58
2023-05-20T08:29:37.624Z,3.28
2023-05-20T08:34:45.084Z,3.80
2023-05-20T08:39:55.236Z,4.20
2023-05-20T08:45:01.123Z,4.22
2023-05-20T08:50:11.668Z,3.85
2023-05-20T08:55:23.101Z,3.97
2023-05-20T09:00:32.838Z,3.80
2023-05-20T09:05:39.733Z,4.03
2023-05-20T09:10:47.221Z,3.60
2023-05-20T09:15:56.818Z,3.95
2023-05-20T09:21:06.093Z,3.75
2023-05-20T09:26:11.763Z,3.42
2023-05-20T09:31:16.315Z,4.03
2023-05-20T09:36:23.023Z,5.60
2023-05-20T09:41:35.754Z,4.10
2023-05-20T09:46:42.217Z,4.50
2023-05-20T09:51:46.971Z,4.38
2023-05-20T09:56:54.414Z,4.28
2023-05-20T10:01:57.853Z,4.65
2023-05-20T10:07:44.055Z,4.13
2023-05-20T10:13:11.872Z,4.13
2023-05-20T10:18:36.299Z,4.15
2023-05-20T10:23:40.056Z,4.07
2023-05-20T10:28:45.670Z,4.63
2023-05-20T10:33:50.930Z,4.07
2023-05-20T10:38:58.301Z,3.90
2023-05-20T10:44:04.352Z,3.78
2023-05-20T10:49:24.051Z,3.40
2023-05-20T10:54:38.194Z,3.63
2023-05-20T10:59:45.284Z,3.45
2023-05-20T11:04:50.162Z,3.78
2023-05-20T11:09:53.625Z,3.42
2023-05-20T11:14:59.611Z,3.45
2023-05-20T11:20:11.569Z,3.60
2023-05-20T11:25:24.647Z,3.42
2023-05-20T11:30:42.675Z,3.10
2023-05-20T11:35:48.491Z,3.17
2023-05-20T11:40:54.541Z,3.35
2023-05-20T11:46:00.535Z,3.42
2023-05-20T11:51:05.138Z,3.40
2023-05-20T11:56:10.801Z,4.15
2023-05-20T12:01:22.241Z,4.47
2023-05-20T12:06:27.286Z,4.15
2023-05-20T12:11:30.853Z,3.88
2023-05-20T12:16:36.921Z,3.45
2023-05-20T12:21:41.548Z,3.60
2023-05-20T12:26:46.105Z,3.53
2023-05-20T12:31:53.091Z,3.22
2023-05-20T12:37:00.411Z,3.22
2023-05-20T12:42:04.401Z,3.70
2023-05-20T12:47:10.498Z,3.10
2023-05-20T12:52:21.934Z,3.63
2023-05-20T12:57:29.352Z,3.70
2023-05-20T13:02:37.695Z,3.60
2023-05-20T13:07:44.180Z,3.53
2023-05-20T13:12:50.413Z,3.00
2023-05-20T13:17:55.531Z,3.10
2023-05-20T13:22:59.041Z,3.15
2023-05-20T13:28:03.481Z,3.70
2023-05-20T13:33:09.708Z,3.08
2023-05-20T13:38:16.125Z,3.10
2023-05-20T13:43:20.715Z,3.28
2023-05-20T13:48:38.431Z,3.33
2023-05-20T13:53:53.138Z,3.30
2023-05-20T13:58:56.775Z,3.25
2023-05-20T14:04:02.404Z,2.70
2023-05-20T14:09:08.857Z,3.05
2023-05-20T14:14:12.879Z,2.90
2023-05-20T14:19:18.102Z,2.47
2023-05-20T14:24:23.720Z,2.50
2023-05-20T14:29:27.618Z,2.45
2023-05-20T14:34:32.790Z,2.53
2023-05-20T14:39:37.600Z,2.10
2023-05-20T14:44:41.376Z,2.38
2023-05-20T14:49:50.467Z,2.40
2023-05-20T14:54:56.062Z,2.55
2023-05-20T15:00:00.410Z,2.15
2023-05-20T15:05:06.595Z,2.28
2023-05-20T15:10:10.417Z,2.78
2023-05-20T15:15:13.917Z,2.28
2023-05-20T15:20:18.834Z,2.53
2023-05-20T15:25:26.530Z,2.40
2023-05-20T15:30:34.171Z,2.67
2023-05-20T15:35:39.127Z,2.60
2023-05-20T15:40:43.780Z,2.25
2023-05-20T15:45:49.341Z,2.70
2023-05-20T15:50:54.333Z,2.92
2023-05-20T15:55:58.307Z,3.03
2023-05-20T16:01:02.497Z,2.47
2023-05-20T16:06:07.718Z,2.75
2023-05-20T16:11:13.878Z,2.63
2023-05-20T16:16:18.261Z,2.70
2023-05-20T16:21:25.103Z,2.42
2023-05-20T16:26:31.032Z,2.33
2023-05-20T16:31:34.938Z,2.45
2023-05-20T16:36:43.748Z,2.30
2023-05-20T16:41:47.316Z,2.92
2023-05-20T16:46:53.320Z,3.55
2023-05-20T16:51:59.200Z,2.63
2023-05-20T16:57:03.916Z,3.38
2023-05-20T17:02:07.718Z,2.58
2023-05-20T17:07:14.816Z,3.00
2023-05-20T17:12:18.190Z,2.97
2023-05-20T17:17:22.734Z,2.88
2023-05-20T17:22:27.555Z,2.95
2023-05-20T17:27:31.190Z,3.10
2023-05-20T17:32:36.602Z,3.67
2023-05-20T17:37:42.733Z,2.53
2023-05-20T17:42:49.412Z,2.78
2023-05-20T17:47:53.898Z,3.20
2023-05-20T17:53:02.655Z,2.50
2023-05-20T17:58:09.332Z,2.65
2023-05-20T18:03:13.981Z,2.55
2023-05-20T18:08:19.781Z,3.97
2023-05-20T18:13:23.384Z,3.25
2023-05-20T18:18:27.951Z,4.00
2023-05-20T18:23:32.739Z,3.63
2023-05-20T18:28:36.272Z,2.90
2023-05-20T18:33:41.798Z,2.65
2023-05-20T18:38:47.565Z,4.63
2023-05-20T18:43:52.793Z,3.40
2023-05-20T18:48:56.235Z,3.17
2023-05-20T18:54:01.394Z,3.72
2023-05-20T18:59:05.343Z,3.47
2023-05-20T19:04:08.753Z,3.60
2023-05-20T19:09:13.577Z,4.78
2023-05-20T19:14:17.038Z,3.72
2023-05-20T19:19:21.291Z,4.00
2023-05-20T19:24:29.100Z,4.28
2023-05-20T19:29:34.390Z,3.60
2023-05-20T19:34:37.909Z,4.40
2023-05-20T19:39:42.867Z,4.05
2023-05-20T19:44:46.749Z,3.88
2023-05-20T19:49:50.249Z,4.57
2023-05-20T19:54:54.912Z,4.72
2023-05-20T19:59:59.230Z,4.70
2023-05-20T20:05:02.506Z,3.80
2023-05-20T20:10:10.154Z,4.28
2023-05-20T20:15:16.120Z,6.20
2023-05-20T20:20:20.678Z,6.22
2023-05-20T20:25:27.023Z,5.38
2023-05-20T20:30:31.133Z,5.43
2023-05-20T20:35:36.296Z,4.45
2023-05-20T20:40:43.067Z,5.13
2023-05-20T20:45:47.450Z,4.90
2023-05-20T20:50:51.056Z,5.68
2023-05-20T20:55:58.538Z,5.63
2023-05-20T21:01:07.361Z,4.90
2023-05-20T21:06:12.945Z,5.78
2023-05-20T21:11:17.879Z,5.43
2023-05-20T21:16:21.521Z,5.07
2023-05-20T21:21:25.959Z,4.68
2023-05-20T21:26:30.830Z,5.40
2023-05-20T21:31:34.427Z,5.40
2023-05-20T21:36:37.800Z,5.30
2023-05-20T21:41:43.527Z,5.70
2023-05-20T21:46:47.052Z,5.35
2023-05-20T21:51:52.404Z,5.63
2023-05-20T21:56:57.095Z,5.88
2023-05-20T22:02:01.324Z,5.43
2023-05-20T22:07:04.773Z,5.20
2023-05-20T22:12:15.326Z,6.18
2023-05-20T22:17:20.520Z,6.18
2023-05-20T22:22:23.783Z,5.28
2023-05-20T22:27:28.597Z,4.97
2023-05-20T22:32:32.094Z,5.38
2023-05-20T22:37:35.671Z,4.68
2023-05-20T22:42:40.857Z,5.72
2023-05-20T22:47:44.201Z,6.18
2023-05-20T22:52:48.116Z,6.68
2023-05-20T22:57:53.053Z,5.10
2023-05-20T23:02:57.594Z,5.57
2023-05-20T23:08:01.066Z,5.60
2023-05-20T23:13:06.130Z,5.90
2023-05-20T23:18:10.504Z,5.18
2023-05-20T23:23:13.930Z,6.53
2023-05-20T23:28:18.636Z,6.97
2023-05-20T23:33:25.139Z,6.80
2023-05-20T23:38:30.555Z,7.40
2023-05-20T23:43:38.092Z,6.93
2023-05-20T23:48:41.432Z,8.10
2023-05-20T23:53:46.166Z,6.93
2023-05-20T23:58:54.357Z,7.03
